Time;durP1;ratioP1;P1;durP2;ratioP2;P2;SDS_P1;SDS_P2;PMS_P1;PMS_P2;Temp;Humidity;BMP_temperature;BMP_pressure;BME280_temperature;BME280_humidity;BME280_pressure;Samples;Min_cycle;Max_cycle;Signal;HPM_P1;HPM_P2
2022/05/05 00:00:48;;;;;;;1.43;1.10;;;11.90;92.70;;;;;;5015746;28;20474;-76
2022/05/05 00:03:16;;;;;;;1.50;1.10;;;11.90;93.10;;;;;;5044513;28;20471;-75
2022/05/05 00:05:43;;;;;;;1.47;1.07;;;11.90;92.80;;;;;;5029559;28;20491;-75
2022/05/05 00:08:11;;;;;;;1.47;1.10;;;11.90;93.30;;;;;;5030428;28;20462;-75
2022/05/05 00:16:07;;;;;;;1.47;1.10;;;11.90;93.40;;;;;;5023711;28;20490;-75
2022/05/05 00:18:36;;;;;;;1.43;1.10;;;11.90;93.40;;;;;;5045085;28;21088;-75
2022/05/05 00:21:03;;;;;;;1.50;1.20;;;12.00;94.20;;;;;;5025030;28;20468;-76
2022/05/05 00:23:29;;;;;;;1.47;1.10;;;12.00;93.90;;;;;;5025646;28;21097;-75
2022/05/05 00:25:56;;;;;;;1.50;1.10;;;12.10;94.20;;;;;;5030164;28;20487;-75
2022/05/05 00:28:23;;;;;;;1.50;1.10;;;12.10;93.70;;;;;;5031672;28;20943;-75
2022/05/05 00:30:50;;;;;;;1.50;1.10;;;12.20;93.00;;;;;;5028709;28;20471;-76
2022/05/05 00:33:16;;;;;;;1.47;1.10;;;12.20;93.60;;;;;;5029155;28;20654;-76
2022/05/05 00:35:44;;;;;;;1.43;1.10;;;12.20;94.00;;;;;;5028962;28;20487;-75
2022/05/05 00:38:11;;;;;;;1.50;1.10;;;12.30;94.10;;;;;;5029337;28;20494;-75
2022/05/05 00:40:38;;;;;;;1.47;1.10;;;12.30;93.50;;;;;;5027895;28;20554;-76
2022/05/05 00:43:06;;;;;;;1.43;1.00;;;12.30;93.70;;;;;;5030144;28;20471;-76
2022/05/05 00:45:32;;;;;;;1.47;1.07;;;12.40;94.30;;;;;;5029052;28;20823;-76
2022/05/05 00:48:06;;;;;;;1.43;1.10;;;12.40;93.60;;;;;;5029446;28;20452;-75
2022/05/05 00:50:34;;;;;;;1.43;1.10;;;12.40;93.70;;;;;;5025491;28;20459;-76
2022/05/05 00:53:03;;;;;;;1.50;1.10;;;12.40;93.00;;;;;;5026952;28;20925;-76
2022/05/05 00:55:33;;;;;;;1.50;1.17;;;12.40;93.50;;;;;;5028969;28;20487;-76
2022/05/05 00:58:00;;;;;;;1.47;1.10;;;12.40;93.60;;;;;;5028352;28;20498;-75
2022/05/05 01:00:27;;;;;;;1.43;1.07;;;12.40;92.90;;;;;;5027803;28;20844;-76
2022/05/05 01:02:55;;;;;;;1.40;1.10;;;12.40;93.00;;;;;;5027488;28;20466;-76
2022/05/05 01:05:22;;;;;;;1.40;1.00;;;12.40;93.60;;;;;;5027595;28;21251;-76
2022/05/05 01:07:48;;;;;;;1.50;1.00;;;12.40;92.90;;;;;;5031320;28;20529;-75
2022/05/05 01:10:17;;;;;;;1.50;1.20;;;12.50;93.10;;;;;;5028742;28;20464;-76
2022/05/05 01:12:44;;;;;;;1.50;1.10;;;12.50;92.90;;;;;;5035284;28;21003;-76
2022/05/05 01:15:11;;;;;;;1.50;1.10;;;12.50;93.30;;;;;;5028889;28;20549;-76
2022/05/05 01:17:38;;;;;;;1.40;1.00;;;12.50;93.70;;;;;;5029402;28;20514;-75
2022/05/05 01:20:12;;;;;;;1.47;1.10;;;12.50;94.10;;;;;;5027530;28;20940;-76
2022/05/05 01:22:41;;;;;;;1.43;1.10;;;12.50;93.80;;;;;;5026118;28;20463;-76
2022/05/05 01:30:38;;;;;;;1.47;1.10;;;12.50;93.70;;;;;;5027185;28;20450;-76
2022/05/05 01:33:11;;;;;;;1.43;1.00;;;12.50;92.90;;;;;;5033996;28;20486;-76
2022/05/05 01:35:39;;;;;;;1.47;1.10;;;12.50;93.50;;;;;;5023684;28;20872;-75
2022/05/05 01:38:07;;;;;;;1.43;1.00;;;12.50;93.90;;;;;;5025156;28;20486;-75
2022/05/05 01:40:35;;;;;;;1.50;1.10;;;12.40;95.10;;;;;;5026329;28;20467;-75
2022/05/05 01:43:02;;;;;;;1.50;1.10;;;12.40;96.00;;;;;;5014564;28;20498;-76
2022/05/05 01:45:29;;;;;;;1.40;1.00;;;12.30;96.20;;;;;;5020102;28;20541;-74
2022/05/05 01:47:55;;;;;;;1.47;1.00;;;12.30;96.10;;;;;;5024483;28;21463;-73
2022/05/05 01:50:23;;;;;;;1.50;1.10;;;12.30;96.60;;;;;;5025785;28;20466;-74
2022/05/05 01:52:50;;;;;;;1.43;1.00;;;12.30;96.70;;;;;;5027333;28;20979;-75
2022/05/05 01:55:18;;;;;;;1.40;1.00;;;12.30;95.70;;;;;;5028493;28;20490;-74
2022/05/05 01:57:44;;;;;;;1.47;1.00;;;12.30;95.20;;;;;;5027443;28;20991;-74
2022/05/05 02:00:12;;;;;;;1.40;1.00;;;12.40;94.90;;;;;;5027483;28;20463;-74
2022/05/05 02:02:39;;;;;;;1.47;1.07;;;12.50;94.90;;;;;;5030270;28;20519;-74
2022/05/05 02:05:07;;;;;;;1.43;1.00;;;12.50;94.40;;;;;;5027258;28;20487;-74
2022/05/05 02:07:34;;;;;;;1.47;1.00;;;12.50;94.40;;;;;;5025652;28;20537;-74
2022/05/05 02:10:01;;;;;;;1.47;1.00;;;12.60;94.50;;;;;;5025104;28;20463;-74
2022/05/05 02:12:29;;;;;;;1.50;1.10;;;12.60;94.10;;;;;;5030974;28;21001;-74
2022/05/05 02:14:57;;;;;;;1.43;1.00;;;12.70;94.00;;;;;;5029957;28;20475;-74
2022/05/05 02:17:24;;;;;;;1.47;1.00;;;12.70;93.00;;;;;;5028572;28;20479;-74
2022/05/05 02:19:51;;;;;;;1.43;1.03;;;12.70;94.30;;;;;;5025144;28;20463;-74
2022/05/05 02:22:18;;;;;;;1.50;1.10;;;12.70;93.80;;;;;;5025901;28;20463;-74
2022/05/05 02:24:44;;;;;;;1.50;1.00;;;12.70;93.60;;;;;;5025874;28;20463;-74
2022/05/05 02:27:11;;;;;;;1.43;0.90;;;12.70;93.90;;;;;;5028351;28;20474;-74
2022/05/05 02:29:41;;;;;;;1.43;1.00;;;12.70;93.70;;;;;;5026848;28;20846;-74
2022/05/05 02:32:09;;;;;;;1.50;1.30;;;12.70;92.90;;;;;;5032480;28;20467;-74
2022/05/05 02:34:35;;;;;;;1.50;1.20;;;12.70;92.90;;;;;;5026788;28;20972;-74
2022/05/05 02:39:47;;;;;;;1.50;1.10;;;12.60;92.90;;;;;;5027271;28;20958;-74
2022/05/05 02:42:13;;;;;;;1.50;1.10;;;12.60;92.70;;;;;;5031353;28;20460;-74
2022/05/05 02:44:41;;;;;;;1.47;1.10;;;12.60;92.80;;;;;;5026709;28;20828;-74
2022/05/05 02:47:08;;;;;;;1.43;1.00;;;12.60;93.10;;;;;;5029755;28;20486;-76
2022/05/05 02:49:35;;;;;;;1.50;1.10;;;12.60;93.00;;;;;;5024516;28;20948;-76
2022/05/05 02:52:02;;;;;;;1.47;1.00;;;12.50;92.90;;;;;;5025613;28;20709;-76
2022/05/05 02:57:13;;;;;;;1.47;1.00;;;12.50;94.20;;;;;;5029629;28;20450;-76
2022/05/05 02:59:41;;;;;;;1.50;1.10;;;12.50;94.50;;;;;;5027208;28;20455;-76
2022/05/05 03:02:08;;;;;;;1.40;1.10;;;12.50;94.20;;;;;;5029096;28;20463;-76
2022/05/05 03:04:35;;;;;;;1.50;1.00;;;12.40;94.70;;;;;;5029013;28;20467;-76
2022/05/05 03:07:02;;;;;;;1.47;1.10;;;12.40;95.40;;;;;;5033514;28;20489;-76
2022/05/05 03:09:29;;;;;;;1.40;1.03;;;12.40;95.10;;;;;;5025907;28;20541;-76
2022/05/05 03:11:55;;;;;;;1.43;1.00;;;12.40;95.50;;;;;;5031156;28;20471;-76
2022/05/05 03:14:22;;;;;;;1.50;1.00;;;12.40;95.80;;;;;;5024508;28;20466;-76
2022/05/05 03:16:51;;;;;;;1.50;1.03;;;12.40;95.10;;;;;;5027757;28;20489;-75
2022/05/05 03:19:18;;;;;;;1.47;1.10;;;12.40;94.50;;;;;;5035480;28;20497;-76
2022/05/05 03:21:44;;;;;;;1.40;1.07;;;12.40;94.60;;;;;;5028293;28;20472;-76
2022/05/05 03:24:11;;;;;;;1.50;1.10;;;12.50;94.70;;;;;;5030423;28;20939;-75
2022/05/05 03:26:38;;;;;;;1.40;1.00;;;12.50;94.10;;;;;;5031361;28;21175;-76
2022/05/05 03:29:05;;;;;;;1.43;1.00;;;12.50;94.20;;;;;;5028341;28;20455;-76
2022/05/05 03:31:32;;;;;;;1.47;1.00;;;12.50;94.40;;;;;;5033550;28;20493;-76
2022/05/05 03:34:00;;;;;;;1.43;1.00;;;12.40;94.90;;;;;;5029323;28;20459;-76
2022/05/05 03:36:27;;;;;;;1.43;1.10;;;12.40;94.50;;;;;;5026653;28;20493;-76
2022/05/05 03:38:54;;;;;;;1.43;1.00;;;12.40;94.40;;;;;;5040852;28;20877;-76
2022/05/05 03:41:21;;;;;;;1.50;1.10;;;12.40;94.30;;;;;;5032862;28;20466;-76
2022/05/05 03:43:48;;;;;;;1.43;1.00;;;12.40;94.90;;;;;;5021872;28;20584;-76
2022/05/05 03:46:15;;;;;;;1.43;1.00;;;12.40;94.50;;;;;;5027674;28;20490;-75
2022/05/05 03:48:42;;;;;;;1.43;1.00;;;12.40;94.40;;;;;;5021829;28;20491;-76
2022/05/05 03:51:10;;;;;;;1.40;1.00;;;12.40;95.20;;;;;;5028502;28;20462;-76
2022/05/05 03:53:37;;;;;;;1.50;1.10;;;12.40;95.10;;;;;;5022737;28;20550;-76
2022/05/05 03:56:05;;;;;;;1.40;1.00;;;12.40;94.40;;;;;;5025189;28;20482;-76
2022/05/05 03:58:31;;;;;;;1.47;1.00;;;12.40;94.90;;;;;;5021276;28;20577;-76
2022/05/05 04:00:58;;;;;;;1.43;1.07;;;12.30;95.10;;;;;;5028758;28;21109;-76
2022/05/05 04:03:36;;;;;;;1.47;1.00;;;12.30;95.30;;;;;;5022350;28;20959;-76
2022/05/05 04:06:06;;;;;;;1.40;1.00;;;12.30;95.30;;;;;;5025281;28;20475;-76
2022/05/05 04:08:34;;;;;;;1.40;1.00;;;12.30;95.60;;;;;;5028913;28;20455;-76
2022/05/05 04:11:01;;;;;;;1.40;1.00;;;12.30;95.20;;;;;;5019180;28;20468;-76
2022/05/05 04:13:28;;;;;;;1.43;1.10;;;12.30;95.20;;;;;;5028985;28;20466;-75
2022/05/05 04:15:55;;;;;;;1.43;1.00;;;12.20;96.20;;;;;;5029810;28;20495;-77
2022/05/05 04:18:22;;;;;;;1.50;1.10;;;12.20;96.40;;;;;;5029828;28;21207;-78
2022/05/05 04:20:48;;;;;;;1.47;1.03;;;12.20;96.10;;;;;;5028010;28;20456;-77
2022/05/05 04:23:17;;;;;;;1.47;1.10;;;12.20;95.80;;;;;;5024851;28;20494;-75
2022/05/05 04:25:46;;;;;;;1.43;1.03;;;12.20;96.70;;;;;;5025985;28;20479;-77
2022/05/05 04:28:13;;;;;;;1.47;1.00;;;12.20;96.70;;;;;;5018785;28;20852;-77
2022/05/05 04:30:41;;;;;;;1.40;1.10;;;12.20;95.90;;;;;;5028017;28;20466;-77
2022/05/05 04:33:08;;;;;;;1.43;1.10;;;12.30;96.10;;;;;;5031248;28;20471;-77
2022/05/05 04:35:36;;;;;;;1.43;1.00;;;12.30;96.80;;;;;;5025961;28;20565;-77
2022/05/05 04:38:03;;;;;;;1.50;1.27;;;12.20;96.40;;;;;;5023718;28;20866;-77
2022/05/05 04:40:30;;;;;;;1.40;1.00;;;12.30;96.20;;;;;;5020923;28;20470;-75
2022/05/05 04:42:59;;;;;;;1.43;1.10;;;12.30;96.70;;;;;;5023641;28;20469;-77
2022/05/05 04:45:27;;;;;;;1.43;1.10;;;12.30;96.30;;;;;;5026754;28;20506;-77
2022/05/05 04:47:53;;;;;;;1.43;1.10;;;12.30;96.30;;;;;;5012891;28;20507;-77
2022/05/05 04:50:20;;;;;;;1.50;1.10;;;12.30;95.80;;;;;;5021268;28;20462;-77
2022/05/05 04:52:47;;;;;;;1.50;1.10;;;12.30;96.60;;;;;;5021397;28;20804;-75
2022/05/05 04:55:14;;;;;;;1.43;1.10;;;12.40;96.30;;;;;;5018225;28;20837;-75
2022/05/05 04:57:41;;;;;;;1.50;1.03;;;12.40;96.20;;;;;;5022320;28;20466;-77
2022/05/05 05:00:10;;;;;;;1.50;1.10;;;12.40;96.00;;;;;;5026651;28;20491;-77
2022/05/05 05:02:37;;;;;;;1.47;1.10;;;12.50;96.50;;;;;;5030129;28;20550;-76
2022/05/05 05:05:05;;;;;;;2.27;2.07;;;12.50;96.80;;;;;;5022952;28;20518;-77
2022/05/05 05:07:31;;;;;;;1.43;1.07;;;12.60;96.40;;;;;;5033663;28;20500;-76
2022/05/05 05:09:58;;;;;;;1.40;1.00;;;12.60;96.40;;;;;;5027763;28;20463;-76
2022/05/05 05:12:25;;;;;;;1.50;1.10;;;12.70;96.30;;;;;;5026617;28;20526;-77
2022/05/05 05:14:52;;;;;;;1.50;1.00;;;12.90;96.80;;;;;;5028114;28;21196;-76
2022/05/05 05:17:20;;;;;;;1.50;1.00;;;13.00;96.20;;;;;;5031211;28;20470;-77
2022/05/05 05:19:47;;;;;;;1.50;1.00;;;13.10;95.80;;;;;;5027038;28;20483;-76
2022/05/05 05:22:14;;;;;;;1.50;1.00;;;13.20;95.50;;;;;;5026557;28;20467;-75
2022/05/05 05:24:40;;;;;;;1.47;1.00;;;13.30;94.80;;;;;;5026757;28;20466;-78
2022/05/05 05:27:07;;;;;;;1.47;1.00;;;13.40;95.00;;;;;;5030601;28;20498;-77
2022/05/05 05:29:34;;;;;;;1.50;1.00;;;13.50;94.50;;;;;;5024258;28;20464;-78
2022/05/05 05:32:01;;;;;;;1.50;1.10;;;13.60;94.40;;;;;;5026311;28;20459;-77
2022/05/05 05:34:29;;;;;;;1.47;1.00;;;13.60;94.40;;;;;;5025971;28;20462;-77
2022/05/05 05:36:56;;;;;;;1.43;1.10;;;13.70;94.00;;;;;;5017706;28;20820;-77
2022/05/05 05:39:23;;;;;;;1.47;1.00;;;13.70;93.50;;;;;;5023162;28;20498;-78
2022/05/05 05:41:50;;;;;;;1.47;1.00;;;13.80;92.80;;;;;;5026233;28;20474;-77
2022/05/05 05:44:17;;;;;;;1.43;1.00;;;13.90;92.50;;;;;;5023323;28;20550;-78
2022/05/05 05:46:43;;;;;;;1.47;1.10;;;14.00;92.20;;;;;;5016306;28;20518;-78
2022/05/05 05:49:10;;;;;;;1.47;0.93;;;14.10;91.80;;;;;;5015936;28;20462;-77
2022/05/05 05:51:38;;;;;;;1.47;1.00;;;14.30;91.30;;;;;;5022405;28;21179;-77
2022/05/05 05:54:05;;;;;;;1.47;1.00;;;14.40;91.00;;;;;;5014738;28;20473;-77
2022/05/05 05:56:33;;;;;;;1.50;1.00;;;14.60;91.20;;;;;;5020183;28;20491;-77
2022/05/05 05:59:01;;;;;;;1.47;1.00;;;14.80;90.30;;;;;;5020485;28;20515;-78
2022/05/05 06:04:10;;;;;;;1.47;1.00;;;15.00;89.20;;;;;;5022650;28;20455;-78
2022/05/05 06:06:38;;;;;;;1.50;1.20;;;15.10;88.90;;;;;;5025932;28;20530;-78
2022/05/05 06:09:05;;;;;;;1.40;0.93;;;15.10;89.10;;;;;;5019865;28;20464;-78
2022/05/05 06:11:32;;;;;;;1.47;1.00;;;15.20;88.80;;;;;;5025755;28;20493;-77
2022/05/05 06:13:59;;;;;;;1.50;1.00;;;15.30;89.10;;;;;;5020815;28;20470;-77
2022/05/05 06:16:27;;;;;;;1.50;1.00;;;15.30;88.70;;;;;;5027481;28;20498;-77
2022/05/05 06:18:54;;;;;;;1.50;1.00;;;15.30;88.90;;;;;;5020515;28;20487;-77
2022/05/05 06:21:20;;;;;;;1.50;1.00;;;15.40;88.80;;;;;;5021383;28;20467;-77
2022/05/05 06:23:48;;;;;;;1.47;1.00;;;15.50;88.80;;;;;;5025463;28;20467;-77
2022/05/05 06:26:15;;;;;;;1.47;0.90;;;15.50;88.40;;;;;;5020845;28;20493;-78
2022/05/05 06:28:43;;;;;;;1.50;1.00;;;15.50;88.30;;;;;;5025343;28;21108;-77
2022/05/05 06:31:11;;;;;;;1.43;1.00;;;15.50;88.40;;;;;;5024654;28;20498;-77
2022/05/05 06:33:38;;;;;;;1.50;1.00;;;15.60;88.90;;;;;;5026586;28;20471;-78
2022/05/05 06:36:05;;;;;;;1.47;1.00;;;15.70;88.70;;;;;;5031501;28;20533;-77
2022/05/05 06:38:33;;;;;;;1.50;1.00;;;15.80;88.40;;;;;;5031420;28;20569;-77
2022/05/05 06:41:01;;;;;;;1.43;0.90;;;16.00;88.30;;;;;;5030275;28;20541;-75
2022/05/05 06:43:29;;;;;;;8.40;2.23;;;16.10;87.30;;;;;;5034718;28;20478;-77
2022/05/05 06:45:56;;;;;;;1.50;1.00;;;16.20;87.00;;;;;;5023738;28;20841;-76
2022/05/05 06:48:23;;;;;;;1.43;0.90;;;16.20;86.80;;;;;;5034121;28;20730;-77
2022/05/05 06:50:49;;;;;;;1.50;1.00;;;16.20;86.80;;;;;;5018027;28;20877;-78
2022/05/05 06:53:16;;;;;;;1.40;1.00;;;16.30;86.90;;;;;;5046297;28;20471;-77
2022/05/05 06:55:43;;;;;;;1.50;1.00;;;16.50;87.10;;;;;;5031276;28;20916;-78
2022/05/05 06:58:11;;;;;;;1.43;0.90;;;16.70;87.00;;;;;;5024615;28;20464;-77
2022/05/05 07:03:23;;;;;;;1.50;0.90;;;17.00;85.00;;;;;;5028370;28;20493;-76
2022/05/05 07:05:49;;;;;;;1.50;0.90;;;17.20;84.80;;;;;;5030318;28;20482;-78
2022/05/05 07:08:16;;;;;;;1.47;0.90;;;17.40;84.80;;;;;;5022059;28;20471;-77
2022/05/05 07:10:54;;;;;;;1.50;0.90;;;17.60;83.90;;;;;;5020523;28;21015;-78
2022/05/05 07:13:22;;;;;;;1.43;0.90;;;17.80;82.90;;;;;;5020387;28;20982;-78
2022/05/05 07:15:49;;;;;;;1.50;0.90;;;17.90;82.20;;;;;;5027044;28;20863;-77
2022/05/05 07:18:16;;;;;;;1.40;0.90;;;18.00;82.80;;;;;;5029536;28;20471;-77
2022/05/05 07:20:43;;;;;;;1.47;0.90;;;18.10;82.40;;;;;;5027426;28;20497;-76
2022/05/05 07:23:12;;;;;;;1.43;0.90;;;18.30;81.80;;;;;;5026313;28;20459;-75
2022/05/05 07:25:40;;;;;;;1.47;0.90;;;18.40;81.00;;;;;;5027048;28;20515;-77
2022/05/05 07:28:07;;;;;;;1.47;0.90;;;18.40;80.60;;;;;;5026502;28;20491;-75
2022/05/05 07:30:36;;;;;;;1.47;0.90;;;18.40;80.40;;;;;;5027471;28;20593;-78
2022/05/05 07:33:03;;;;;;;2.07;1.23;;;18.50;80.30;;;;;;5034332;28;20630;-76
2022/05/05 07:35:30;;;;;;;1.47;0.90;;;18.60;80.60;;;;;;5031408;28;20498;-77
2022/05/05 07:37:57;;;;;;;1.43;0.90;;;18.70;79.70;;;;;;5040890;28;20485;-77
2022/05/05 07:40:24;;;;;;;1.47;0.90;;;18.70;78.70;;;;;;5026550;28;20865;-74
2022/05/05 07:42:50;;;;;;;1.47;0.90;;;18.70;79.10;;;;;;5033124;28;21160;-75
2022/05/05 07:45:18;;;;;;;2.30;2.10;;;18.90;79.00;;;;;;5029071;28;20487;-77
2022/05/05 07:47:46;;;;;;;2.43;1.43;;;19.10;77.80;;;;;;5029431;28;20491;-77
2022/05/05 07:50:13;;;;;;;1.43;0.90;;;19.30;78.20;;;;;;5027680;28;20468;-77
2022/05/05 07:52:40;;;;;;;1.50;0.90;;;19.50;78.00;;;;;;5028836;28;20463;-77
2022/05/05 07:55:07;;;;;;;1.50;0.90;;;19.60;76.90;;;;;;5024243;28;20478;-76
2022/05/05 07:57:43;;;;;;;1.47;0.90;;;19.70;76.10;;;;;;5029543;28;20459;-76
2022/05/05 08:00:11;;;;;;;1.47;0.90;;;20.00;74.90;;;;;;5027112;28;20482;-77
2022/05/05 08:02:38;;;;;;;1.47;0.90;;;20.20;75.70;;;;;;5030929;28;20463;-76
2022/05/05 08:05:09;;;;;;;1.47;0.90;;;20.50;75.60;;;;;;5025440;28;20463;-76
2022/05/05 08:07:36;;;;;;;1.50;0.90;;;20.60;74.20;;;;;;5024510;28;20467;-75
2022/05/05 08:10:03;;;;;;;1.47;0.90;;;20.70;73.30;;;;;;5018977;28;20459;-75
2022/05/05 08:12:30;;;;;;;1.50;0.90;;;20.80;73.00;;;;;;5025078;28;20902;-75
2022/05/05 08:14:59;;;;;;;1.43;0.90;;;20.90;73.50;;;;;;5026736;28;20892;-77
2022/05/05 08:17:26;;;;;;;1.50;0.90;;;21.10;73.60;;;;;;5026814;28;20459;-77
2022/05/05 08:19:53;;;;;;;1.50;0.90;;;21.20;73.50;;;;;;5026785;28;20487;-78
2022/05/05 08:22:21;;;;;;;1.50;0.90;;;21.30;72.40;;;;;;5029519;28;20866;-76
2022/05/05 08:30:16;;;;;;;1.47;0.90;;;21.60;72.30;;;;;;5026294;28;20486;-77
2022/05/05 08:32:43;;;;;;;1.50;1.30;;;21.80;69.40;;;;;;5027813;28;20489;-76
2022/05/05 08:35:10;;;;;;;1.47;0.90;;;22.00;69.80;;;;;;5027716;28;20483;-76
2022/05/05 08:37:38;;;;;;;1.43;0.90;;;22.30;69.40;;;;;;5029469;28;20939;-75
2022/05/05 08:40:07;;;;;;;1.43;0.90;;;22.40;69.40;;;;;;5024094;28;20495;-75
2022/05/05 08:42:34;;;;;;;1.43;0.90;;;22.60;68.00;;;;;;5027612;28;20493;-76
2022/05/05 08:45:01;;;;;;;1.43;0.87;;;22.60;68.60;;;;;;5025182;28;20514;-76
2022/05/05 08:47:32;;;;;;;1.43;0.90;;;22.70;66.00;;;;;;5023585;28;20524;-76
2022/05/05 08:50:01;;;;;;;1.47;0.90;;;22.80;65.90;;;;;;5020592;28;20459;-76
2022/05/05 08:52:40;;;;;;;1.40;0.90;;;22.80;66.10;;;;;;5023198;28;20570;-76
2022/05/05 08:55:13;;;;;;;1.47;0.90;;;22.70;67.30;;;;;;5018108;28;20474;-76
2022/05/05 08:57:40;;;;;;;1.47;0.83;;;22.60;66.50;;;;;;5020951;28;20499;-76
2022/05/05 09:00:08;;;;;;;1.43;0.80;;;22.80;67.40;;;;;;5022670;28;20572;-76
2022/05/05 09:02:34;;;;;;;1.50;1.07;;;22.90;66.40;;;;;;5029277;28;20809;-75
2022/05/05 09:05:03;;;;;;;1.50;0.83;;;23.00;66.00;;;;;;5024169;28;20790;-76
2022/05/05 09:07:46;;;;;;;1.50;0.90;;;22.90;65.80;;;;;;5029164;28;20490;-76
2022/05/05 09:10:15;;;;;;;1.47;0.90;;;22.90;65.40;;;;;;5020584;28;20528;-76
2022/05/05 09:12:42;;;;;;;1.43;0.90;;;22.80;65.30;;;;;;5027500;28;20502;-75
2022/05/05 09:15:11;;;;;;;1.47;0.90;;;22.80;66.10;;;;;;5015892;28;20493;-75
2022/05/05 09:17:38;;;;;;;1.43;0.80;;;22.90;66.30;;;;;;5028391;28;20906;-76
2022/05/05 09:20:06;;;;;;;1.47;0.90;;;22.90;64.90;;;;;;5022614;28;20479;-75
2022/05/05 09:22:33;;;;;;;1.43;0.90;;;23.00;64.60;;;;;;5014849;28;20495;-76
2022/05/05 09:25:02;;;;;;;1.43;0.80;;;23.10;64.60;;;;;;5023073;28;20482;-76
2022/05/05 09:27:33;;;;;;;1.43;0.90;;;22.90;66.00;;;;;;5028959;28;20521;-74
2022/05/05 09:30:03;;;;;;;1.50;0.80;;;22.90;66.10;;;;;;5024208;28;20466;-75
2022/05/05 09:32:33;;;;;;;1.43;0.80;;;22.90;66.20;;;;;;5024976;28;21230;-75
2022/05/05 09:35:02;;;;;;;1.47;0.80;;;23.00;65.40;;;;;;5021856;28;20462;-77
2022/05/05 09:37:29;;;;;;;1.40;0.90;;;23.10;65.70;;;;;;5026695;28;20474;-76
2022/05/05 09:39:59;;;;;;;1.43;0.83;;;23.20;64.50;;;;;;5026510;28;20983;-76
2022/05/05 09:42:43;;;;;;;1.47;0.90;;;23.40;64.00;;;;;;5023505;28;20474;-78
2022/05/05 09:45:21;;;;;;;1.50;0.90;;;23.10;62.70;;;;;;5017225;28;20584;-77
2022/05/05 09:47:50;;;;;;;1.50;0.80;;;23.10;64.20;;;;;;5023025;28;20466;-77
2022/05/05 09:50:20;;;;;;;1.43;0.80;;;23.40;63.70;;;;;;5022510;28;20464;-76
2022/05/05 09:58:21;;;;;;;1.47;0.80;;;24.30;63.10;;;;;;5029476;28;20454;-76
2022/05/05 10:00:59;;;;;;;1.43;0.90;;;24.50;62.50;;;;;;5020843;28;21112;-76
2022/05/05 10:06:25;;;;;;;1.50;0.83;;;24.50;61.10;;;;;;5026021;28;20614;-77
2022/05/05 10:08:53;;;;;;;1.50;0.90;;;24.40;61.50;;;;;;5017361;28;20467;-76
2022/05/05 10:11:22;;;;;;;1.47;0.80;;;24.40;61.70;;;;;;5023962;28;21005;-76
2022/05/05 10:13:51;;;;;;;1.47;0.90;;;24.60;62.90;;;;;;5022365;28;20557;-74
2022/05/05 10:16:20;;;;;;;1.40;0.90;;;24.80;61.90;;;;;;5021141;28;20502;-75
2022/05/05 10:18:47;;;;;;;1.40;0.90;;;24.80;61.30;;;;;;5018311;28;20467;-74
2022/05/05 10:21:21;;;;;;;1.50;1.00;;;24.70;61.00;;;;;;5009549;28;20478;-74
2022/05/05 10:24:02;;;;;;;1.40;0.80;;;24.60;61.00;;;;;;5021371;28;20462;-76
2022/05/05 10:26:29;;;;;;;1.50;0.90;;;24.40;60.60;;;;;;5015111;28;20483;-76
2022/05/05 10:28:57;;;;;;;1.50;0.90;;;24.20;61.80;;;;;;5023289;28;20470;-76
2022/05/05 10:31:46;;;;;;;1.40;0.90;;;24.20;62.80;;;;;;5022350;28;20459;-75
2022/05/05 10:34:18;;;;;;;1.47;0.87;;;24.50;62.00;;;;;;5015101;28;20467;-76
2022/05/05 10:37:02;;;;;;;1.40;0.80;;;24.90;62.20;;;;;;5020154;28;21021;-77
2022/05/05 10:40:03;;;;;;;1.40;0.80;;;25.30;60.20;;;;;;5013094;28;20619;-76
2022/05/05 10:42:38;;;;;;;1.40;0.80;;;25.70;59.20;;;;;;4948349;28;20473;-76
2022/05/05 10:45:15;;;;;;;1.40;0.80;;;26.10;58.80;;;;;;5010248;28;20983;-77
2022/05/05 10:48:31;;;;;;;1.40;0.80;;;26.30;60.10;;;;;;5020595;28;20474;-76
2022/05/05 10:51:08;;;;;;;1.43;0.80;;;26.40;58.70;;;;;;5019972;28;20463;-76
2022/05/05 10:53:38;;;;;;;1.47;0.80;;;26.60;59.00;;;;;;5020173;28;20851;-76
2022/05/05 10:56:06;;;;;;;1.47;0.87;;;26.70;58.30;;;;;;5019945;28;20498;-76
2022/05/05 10:59:13;;;;;;;1.43;0.90;;;26.90;59.00;;;;;;5020678;28;20466;-76
2022/05/05 11:02:01;;;;;;;1.47;0.80;;;27.10;58.80;;;;;;5016174;28;20503;-75
2022/05/05 11:04:30;;;;;;;1.43;0.87;;;27.00;59.60;;;;;;5020302;28;21226;-75
2022/05/05 11:07:36;;;;;;;1.50;1.17;;;26.80;58.10;;;;;;5017014;28;20478;-76
2022/05/05 11:10:06;;;;;;;1.43;0.90;;;26.40;58.70;;;;;;5016942;28;20494;-76
2022/05/05 11:12:37;;;;;;;1.47;0.80;;;25.80;59.20;;;;;;5024665;28;21300;-77
2022/05/05 11:23:40;;;;;;;1.47;0.80;;;26.30;60.00;;;;;;5017661;28;20458;-76
2022/05/05 11:26:07;;;;;;;1.70;1.37;;;26.60;58.10;;;;;;5019757;28;20482;-76
2022/05/05 11:28:34;;;;;;;1.43;0.80;;;26.40;57.00;;;;;;5023881;28;20470;-76
2022/05/05 11:31:02;;;;;;;1.43;0.80;;;26.40;61.20;;;;;;5022572;28;20939;-76
2022/05/05 11:33:30;;;;;;;1.47;0.90;;;26.50;59.40;;;;;;5024727;28;20474;-76
2022/05/05 11:35:59;;;;;;;1.40;0.80;;;26.70;57.70;;;;;;5020913;28;20497;-76
2022/05/05 11:38:28;;;;;;;1.40;0.80;;;26.90;60.20;;;;;;5027937;28;20467;-76
2022/05/05 11:41:05;;;;;;;1.40;0.80;;;27.10;58.70;;;;;;5020115;28;20509;-77
2022/05/05 11:46:19;;;;;;;1.43;0.80;;;27.50;55.80;;;;;;5027739;28;20497;-75
2022/05/05 11:48:54;;;;;;;1.47;0.80;;;27.50;58.30;;;;;;5018892;28;20471;-76
2022/05/05 11:51:22;;;;;;;1.47;0.80;;;27.60;57.90;;;;;;5021320;28;20512;-76
2022/05/05 11:53:49;;;;;;;1.40;0.80;;;27.60;55.90;;;;;;5022483;28;20502;-76
2022/05/05 11:56:17;;;;;;;1.40;0.80;;;27.70;57.40;;;;;;5024120;28;20482;-76
2022/05/05 12:01:39;;;;;;;1.43;0.80;;;27.20;56.80;;;;;;5019400;28;20474;-76
2022/05/05 12:04:10;;;;;;;1.50;1.00;;;26.50;57.50;;;;;;5020901;28;20466;-76
2022/05/05 12:06:39;;;;;;;1.43;0.87;;;26.00;58.50;;;;;;5021078;28;20490;-77
2022/05/05 12:09:08;;;;;;;1.50;1.00;;;25.50;59.10;;;;;;5022165;28;20589;-77
2022/05/05 12:11:35;;;;;;;1.43;0.90;;;25.20;59.80;;;;;;5019386;28;20467;-77
2022/05/05 12:14:05;;;;;;;1.47;0.80;;;24.90;60.60;;;;;;5023961;28;20843;-77
2022/05/05 12:16:34;;;;;;;1.40;0.90;;;24.80;60.70;;;;;;5024518;28;20505;-77
2022/05/05 12:19:01;;;;;;;1.43;0.80;;;24.80;61.30;;;;;;5021559;28;20988;-77
2022/05/05 12:21:29;;;;;;;1.40;0.80;;;25.10;61.90;;;;;;5025035;28;20945;-77
2022/05/05 12:23:58;;;;;;;1.40;0.90;;;25.40;61.00;;;;;;5017398;28;21030;-77
2022/05/05 12:26:29;;;;;;;1.43;0.80;;;25.70;61.20;;;;;;5023893;28;20977;-77
2022/05/05 12:28:56;;;;;;;1.47;0.90;;;25.90;59.20;;;;;;5013166;28;20560;-77
2022/05/05 12:31:23;;;;;;;2.27;1.30;;;26.00;59.60;;;;;;5028601;28;20454;-77
2022/05/05 12:33:50;;;;;;;1.43;0.90;;;26.00;59.30;;;;;;5014103;28;20468;-77
2022/05/05 12:36:18;;;;;;;1.40;0.80;;;26.10;59.50;;;;;;5019101;28;20495;-77
2022/05/05 12:38:46;;;;;;;1.67;0.90;;;26.30;58.80;;;;;;5020233;28;20468;-78
2022/05/05 12:41:13;;;;;;;1.43;0.80;;;26.40;59.00;;;;;;5024072;28;20494;-77
2022/05/05 12:43:41;;;;;;;1.47;0.90;;;26.60;60.00;;;;;;5015976;28;20470;-77
2022/05/05 12:46:08;;;;;;;1.43;0.80;;;26.70;57.10;;;;;;5018824;28;20483;-77
2022/05/05 12:48:40;;;;;;;1.50;0.80;;;26.70;58.70;;;;;;5017172;28;20467;-77
2022/05/05 12:51:16;;;;;;;1.50;0.80;;;26.50;59.10;;;;;;5022989;28;20936;-77
2022/05/05 13:01:58;;;;;;;1.50;1.10;;;26.60;57.70;;;;;;5023202;28;20481;-77
2022/05/05 13:04:24;;;;;;;1.47;0.90;;;26.50;59.60;;;;;;5027184;28;20467;-77
2022/05/05 13:06:52;;;;;;;1.43;0.90;;;26.50;59.60;;;;;;5026331;28;20478;-77
2022/05/05 13:09:20;;;;;;;1.60;1.30;;;26.50;58.80;;;;;;5020846;28;20569;-77
2022/05/05 13:11:51;;;;;;;1.47;0.80;;;26.40;57.50;;;;;;5022310;28;20459;-77
2022/05/05 13:14:20;;;;;;;1.47;0.90;;;26.10;58.80;;;;;;5025642;28;20540;-78
2022/05/05 13:16:48;;;;;;;1.50;0.80;;;25.80;58.50;;;;;;5023371;28;20536;-77
2022/05/05 13:19:15;;;;;;;1.43;0.90;;;26.00;60.50;;;;;;5024330;28;21308;-77
2022/05/05 13:21:41;;;;;;;1.40;0.90;;;26.20;58.90;;;;;;5024665;28;20644;-77
2022/05/05 13:24:10;;;;;;;1.43;0.80;;;26.40;59.30;;;;;;5025974;28;20543;-77
2022/05/05 13:26:38;;;;;;;1.40;0.80;;;26.30;57.70;;;;;;5024544;28;20809;-77
2022/05/05 13:29:06;;;;;;;1.50;1.00;;;26.10;56.80;;;;;;5025559;28;20498;-77
2022/05/05 13:31:33;;;;;;;1.43;0.90;;;25.90;58.20;;;;;;5024118;28;20486;-77
2022/05/05 13:34:00;;;;;;;1.47;0.80;;;26.00;58.60;;;;;;5018497;28;20466;-77
2022/05/05 13:36:27;;;;;;;1.47;0.90;;;25.90;58.20;;;;;;5024957;28;20534;-77
2022/05/05 13:38:54;;;;;;;1.43;0.80;;;26.20;59.70;;;;;;5026636;28;20466;-77
2022/05/05 13:41:21;;;;;;;1.50;0.90;;;26.40;58.90;;;;;;5018424;28;20497;-77
2022/05/05 13:43:47;;;;;;;1.50;1.00;;;26.60;56.50;;;;;;5024611;28;20842;-76
2022/05/05 13:46:15;;;;;;;1.43;0.90;;;26.90;57.50;;;;;;5025245;28;20473;-77
2022/05/05 13:48:42;;;;;;;1.60;1.10;;;27.00;57.30;;;;;;5024881;28;20466;-76
2022/05/05 13:51:09;;;;;;;1.43;0.90;;;27.10;56.70;;;;;;5022548;28;20807;-77
2022/05/05 13:53:36;;;;;;;1.43;0.90;;;26.90;55.90;;;;;;5026198;28;20462;-76